createdAt,value
2023-03-30T00:00:20.506Z,100240.88
2023-03-30T00:00:46.057Z,100228.06
2023-03-30T00:01:11.901Z,100231.97
2023-03-30T00:01:33.707Z,100237.44
2023-03-30T00:01:56.381Z,100240.13
2023-03-30T00:02:18.708Z,100234.09
2023-03-30T00:02:43.850Z,100227.75
2023-03-30T00:03:05.659Z,100229.47
2023-03-30T00:03:29.794Z,100225.94
2023-03-30T00:03:55.098Z,100223.25
2023-03-30T00:04:18.829Z,100232.94
2023-03-30T00:04:43.003Z,100230.66
2023-03-30T00:05:06.684Z,100226.44
2023-03-30T00:05:28.719Z,100226.81
2023-03-30T00:05:51.647Z,100230.25
2023-03-30T00:06:21.091Z,100228.53
2023-03-30T00:06:43.693Z,100232.94
2023-03-30T00:07:05.512Z,100234.66
2023-03-30T00:07:27.621Z,100224.69
2023-03-30T00:07:49.216Z,100227.47
2023-03-30T00:08:10.829Z,100226.63
2023-03-30T00:08:33.581Z,100231.00
2023-03-30T00:08:57.350Z,100229.47
2023-03-30T00:09:19.237Z,100244.69
2023-03-30T00:09:43.310Z,100233.88
2023-03-30T00:10:06.952Z,100226.72
2023-03-30T00:10:29.395Z,100233.69
2023-03-30T00:10:52.843Z,100231.69
2023-03-30T00:11:17.251Z,100240.47
2023-03-30T00:11:38.838Z,100237.69
2023-03-30T00:12:03.539Z,100231.56
2023-03-30T00:12:25.206Z,100235.09
2023-03-30T00:12:51.857Z,100238.78
2023-03-30T00:13:14.044Z,100236.81
2023-03-30T00:13:37.280Z,100235.00
2023-03-30T00:13:58.914Z,100232.13
2023-03-30T00:14:23.406Z,100232.31
2023-03-30T00:14:45.062Z,100229.44
2023-03-30T00:15:09.524Z,100229.56
2023-03-30T00:15:31.252Z,100225.06
2023-03-30T00:15:54.264Z,100230.28
2023-03-30T00:16:17.474Z,100228.47
2023-03-30T00:16:39.365Z,100231.97
2023-03-30T00:17:01.086Z,100221.22
2023-03-30T00:17:22.961Z,100229.38
2023-03-30T00:17:46.378Z,100226.69
2023-03-30T00:18:09.241Z,100228.47
2023-03-30T00:18:31.017Z,100226.69
2023-03-30T00:18:52.674Z,100230.16
2023-03-30T00:19:16.668Z,100220.44
2023-03-30T00:19:38.653Z,100221.59
2023-03-30T00:20:02.045Z,100221.59
2023-03-30T00:21:11.016Z,100214.72
2023-03-30T00:21:33.442Z,100216.25
2023-03-30T00:21:55.071Z,100224.19
2023-03-30T00:22:16.753Z,100208.28
2023-03-30T00:22:38.668Z,100215.19
2023-03-30T00:23:01.336Z,100215.19
2023-03-30T00:23:22.922Z,100223.06
2023-03-30T00:23:46.973Z,100215.00
2023-03-30T00:24:08.978Z,100207.03
2023-03-30T00:24:30.666Z,100218.56
2023-03-30T00:24:53.325Z,100204.72
2023-03-30T00:25:16.689Z,100213.19
2023-03-30T00:25:39.295Z,100213.47
2023-03-30T00:26:02.207Z,100214.16
2023-03-30T00:26:23.976Z,100216.75
2023-03-30T00:26:45.897Z,100216.75
2023-03-30T00:27:07.717Z,100218.44
2023-03-30T00:27:29.380Z,100217.47
2023-03-30T00:27:52.088Z,100216.53
2023-03-30T00:28:14.069Z,100216.81
2023-03-30T00:28:36.435Z,100218.44
2023-03-30T00:28:59.029Z,100218.34
2023-03-30T00:29:20.864Z,100207.03
2023-03-30T00:29:44.108Z,100221.03
2023-03-30T00:30:10.071Z,100211.53
2023-03-30T00:30:32.799Z,100212.09
2023-03-30T00:30:56.534Z,100218.97
2023-03-30T00:31:20.208Z,100213.75
2023-03-30T00:31:42.589Z,100217.16
2023-03-30T00:32:05.875Z,100215.56
2023-03-30T00:32:27.528Z,100212.88
2023-03-30T00:32:49.180Z,100211.16
2023-03-30T00:33:10.963Z,100219.41
2023-03-30T00:33:44.950Z,100218.56
2023-03-30T00:34:09.559Z,100218.66
2023-03-30T00:34:31.106Z,100220.38
2023-03-30T00:34:52.830Z,100224.88
2023-03-30T00:35:15.993Z,100220.28
2023-03-30T00:35:37.759Z,100214.16
2023-03-30T00:35:59.940Z,100220.56
2023-03-30T00:36:22.915Z,100211.09
2023-03-30T00:36:46.671Z,100195.41
2023-03-30T00:37:08.274Z,100215.28
2023-03-30T00:37:29.867Z,100217.59
2023-03-30T00:37:52.459Z,100223.41
2023-03-30T00:38:14.089Z,100221.91
2023-03-30T00:38:35.773Z,100235.31
2023-03-30T00:38:57.455Z,100221.25
2023-03-30T00:39:22.713Z,100230.81
2023-03-30T00:39:45.516Z,100232.31
2023-03-30T00:40:13.426Z,100236.75
2023-03-30T00:40:37.215Z,100225.44
2023-03-30T00:41:01.004Z,100236.91
2023-03-30T00:41:23.732Z,100230.59
2023-03-30T00:41:45.747Z,100231.97
2023-03-30T00:42:07.403Z,100224.69
2023-03-30T00:42:29.062Z,100224.88
2023-03-30T00:42:50.936Z,100224.88
2023-03-30T00:43:13.600Z,100225.06
2023-03-30T00:43:35.319Z,100223.06
2023-03-30T00:44:00.000Z,100231.75
2023-03-30T00:45:00.389Z,100225.34
2023-03-30T00:45:24.268Z,100219.44
2023-03-30T00:45:45.947Z,100217.81
2023-03-30T00:46:09.985Z,100219.53
2023-03-30T00:46:32.067Z,100218.34
2023-03-30T00:46:54.019Z,100223.63
2023-03-30T00:47:16.462Z,100222.22
2023-03-30T00:47:42.100Z,100219.31
2023-03-30T00:48:08.278Z,100218.34
2023-03-30T00:48:33.018Z,100216.75
2023-03-30T00:48:57.846Z,100209.75
2023-03-30T00:49:21.619Z,100213.38
2023-03-30T00:49:43.919Z,100208.03
2023-03-30T00:50:09.407Z,100199.41
2023-03-30T00:50:35.217Z,100204.00
2023-03-30T00:51:02.807Z,100209.16
2023-03-30T00:51:26.451Z,100211.94
2023-03-30T00:51:50.790Z,100200.34
2023-03-30T00:52:19.386Z,100201.09
2023-03-30T00:52:43.986Z,100198.22
2023-03-30T00:53:10.498Z,100200.78
2023-03-30T00:53:35.569Z,100184.69
2023-03-30T00:54:04.874Z,100192.75
2023-03-30T00:54:26.654Z,100188.25
2023-03-30T00:54:48.765Z,100175.16
2023-03-30T00:55:12.576Z,100175.06
2023-03-30T00:55:37.301Z,100174.09
2023-03-30T00:56:03.155Z,100173.22
2023-03-30T00:56:29.268Z,100168.47
2023-03-30T00:56:51.113Z,100174.41
2023-03-30T00:57:14.531Z,100165.81
2023-03-30T00:57:38.890Z,100155.56
2023-03-30T00:58:02.633Z,100173.72
2023-03-30T00:58:27.392Z,100170.09
2023-03-30T00:58:50.533Z,100177.19
2023-03-30T00:59:13.130Z,100166.38
2023-03-30T00:59:36.083Z,100180.25
2023-03-30T00:59:57.828Z,100174.13
2023-03-30T01:00:19.796Z,100161.78
2023-03-30T01:00:43.330Z,100163.13
2023-03-30T01:01:08.472Z,100164.72
2023-03-30T01:01:34.442Z,100155.25
2023-03-30T01:01:56.404Z,100156.34
2023-03-30T01:02:18.860Z,100162.34
2023-03-30T01:02:45.995Z,100163.94
2023-03-30T01:03:14.926Z,100152.16
2023-03-30T01:03:43.355Z,100166.84
2023-03-30T01:04:08.215Z,100168.38
2023-03-30T01:04:29.875Z,100163.00
2023-03-30T01:04:57.444Z,100154.41
2023-03-30T01:05:19.345Z,100165.59
2023-03-30T01:05:44.774Z,100165.56
2023-03-30T01:06:07.679Z,100156.34
2023-03-30T01:06:31.511Z,100166.84
2023-03-30T01:06:55.089Z,100162.66
2023-03-30T01:07:18.601Z,100164.06
2023-03-30T01:07:42.100Z,100174.03
2023-03-30T01:08:07.589Z,100166.06
2023-03-30T01:08:32.400Z,100164.78
2023-03-30T01:08:54.968Z,100173.47
2023-03-30T01:09:18.106Z,100174.44
2023-03-30T01:09:40.777Z,100177.88
2023-03-30T01:10:02.436Z,100152.47
2023-03-30T01:10:26.048Z,100173.13
2023-03-30T01:10:47.881Z,100176.69
2023-03-30T01:11:09.983Z,100174.94
2023-03-30T01:11:31.593Z,100169.59
2023-03-30T01:11:54.277Z,100172.06
2023-03-30T01:12:15.968Z,100167.47
2023-03-30T01:12:38.975Z,100166.28
2023-03-30T01:13:00.879Z,100163.81
2023-03-30T01:13:23.899Z,100173.59
2023-03-30T01:13:47.988Z,100165.72
2023-03-30T01:14:12.654Z,100169.19
2023-03-30T01:14:35.448Z,100168.13
2023-03-30T01:14:58.429Z,100160.19
2023-03-30T01:15:21.987Z,100153.09
2023-03-30T01:16:01.320Z,100165.56
2023-03-30T01:16:31.271Z,100166.69
2023-03-30T01:17:01.473Z,100147.91
2023-03-30T01:17:29.479Z,100173.28
2023-03-30T01:18:08.756Z,100163.13
2023-03-30T01:18:44.751Z,100166.44
2023-03-30T01:19:25.542Z,100175.66
2023-03-30T01:20:25.553Z,100171.03
2023-03-30T01:21:08.769Z,100172.00
2023-03-30T01:21:55.559Z,100175.84
2023-03-30T01:23:03.583Z,100167.56
2023-03-30T01:24:08.537Z,100170.91
2023-03-30T01:24:54.960Z,100174.56
2023-03-30T01:25:45.611Z,100176.16
2023-03-30T01:26:30.078Z,100160.44
2023-03-30T01:26:56.398Z,100170.53
2023-03-30T01:27:40.073Z,100172.19
2023-03-30T01:28:26.048Z,100172.91
2023-03-30T01:28:53.494Z,100168.50
2023-03-30T01:29:26.218Z,100175.91
2023-03-30T01:30:09.097Z,100175.72
2023-03-30T01:30:43.642Z,100168.63
2023-03-30T01:31:29.885Z,100176.47
2023-03-30T01:32:23.091Z,100177.53
2023-03-30T01:33:15.574Z,100174.91
2023-03-30T01:33:59.133Z,100172.00
2023-03-30T01:35:10.228Z,100177.72
2023-03-30T01:35:50.844Z,100177.31
2023-03-30T01:36:31.022Z,100170.91
2023-03-30T01:37:15.322Z,100176.06
2023-03-30T01:38:04.316Z,100175.75
2023-03-30T01:39:08.641Z,100174.69
2023-03-30T01:39:41.624Z,100166.44
2023-03-30T01:40:09.992Z,100168.38
2023-03-30T01:40:37.925Z,100166.63
2023-03-30T01:41:10.768Z,100166.44
2023-03-30T01:41:37.317Z,100160.84
2023-03-30T01:42:03.672Z,100168.66
2023-03-30T01:42:37.115Z,100164.38
2023-03-30T01:43:08.375Z,100161.03
2023-03-30T01:43:38.901Z,100154.91
2023-03-30T01:44:06.514Z,100162.56
2023-03-30T01:44:40.806Z,100169.31
2023-03-30T01:45:11.454Z,100164.94
2023-03-30T01:45:44.672Z,100155.72
2023-03-30T01:46:14.301Z,100161.00
2023-03-30T01:46:40.920Z,100152.72
2023-03-30T01:47:09.823Z,100159.69
2023-03-30T01:47:37.782Z,100167.75
2023-03-30T01:48:05.687Z,100154.19
2023-03-30T01:48:35.783Z,100146.28
2023-03-30T01:49:04.502Z,100151.66
2023-03-30T01:49:30.339Z,100151.66
2023-03-30T01:49:58.812Z,100158.97
2023-03-30T01:50:25.657Z,100150.16
2023-03-30T01:50:52.720Z,100159.91
2023-03-30T01:51:20.544Z,100152.94
2023-03-30T01:51:47.861Z,100160.78
2023-03-30T01:52:17.922Z,100149.59
2023-03-30T01:52:50.320Z,100140.81
2023-03-30T01:53:17.497Z,100162.50
2023-03-30T01:53:46.517Z,100156.38
2023-03-30T01:54:13.887Z,100162.09
2023-03-30T01:54:41.406Z,100163.94
2023-03-30T01:55:10.234Z,100167.19
2023-03-30T01:55:35.403Z,100163.50
2023-03-30T01:56:03.690Z,100173.09
2023-03-30T01:56:30.622Z,100168.69
2023-03-30T01:56:57.088Z,100167.53
2023-03-30T01:57:22.147Z,100179.03
2023-03-30T01:57:47.808Z,100175.34
2023-03-30T01:58:15.293Z,100176.34
2023-03-30T01:58:44.103Z,100159.69
2023-03-30T01:59:09.822Z,100174.16
2023-03-30T01:59:38.953Z,100181.25
2023-03-30T02:00:13.958Z,100187.41
2023-03-30T02:00:38.211Z,100174.94
2023-03-30T02:01:02.321Z,100174.94
2023-03-30T02:01:27.944Z,100179.44
2023-03-30T02:01:54.206Z,100173.22
2023-03-30T02:02:20.533Z,100167.13
2023-03-30T02:02:47.342Z,100167.22
2023-03-30T02:03:15.073Z,100162.69
2023-03-30T02:03:40.818Z,100164.44
2023-03-30T02:04:05.408Z,100171.31
2023-03-30T02:04:31.281Z,100161.53
2023-03-30T02:04:57.548Z,100166.47
2023-03-30T02:05:23.488Z,100164.75
2023-03-30T02:05:49.221Z,100166.56
2023-03-30T02:06:18.590Z,100155.84
2023-03-30T02:06:47.517Z,100162.06
2023-03-30T02:07:14.269Z,100163.91
2023-03-30T02:07:39.584Z,100160.56
2023-03-30T02:08:06.325Z,100170.13
2023-03-30T02:08:32.608Z,100165.53
2023-03-30T02:08:59.302Z,100171.53
2023-03-30T02:09:26.499Z,100168.53
2023-03-30T02:09:52.263Z,100171.13
2023-03-30T02:10:16.274Z,100173.69
2023-03-30T02:10:39.416Z,100169.16
2023-03-30T02:11:03.338Z,100153.06
2023-03-30T02:11:28.123Z,100155.34
2023-03-30T02:11:53.571Z,100154.47
2023-03-30T02:12:15.461Z,100153.75
2023-03-30T02:12:39.826Z,100160.06
2023-03-30T02:13:02.946Z,100160.81
2023-03-30T02:13:26.548Z,100137.28
2023-03-30T02:13:51.024Z,100156.28
2023-03-30T02:14:16.471Z,100143.00
2023-03-30T02:14:41.025Z,100150.75
2023-03-30T02:15:07.674Z,100153.50
2023-03-30T02:15:38.282Z,100151.59
2023-03-30T02:16:05.894Z,100149.00
2023-03-30T02:16:34.268Z,100133.97
2023-03-30T02:17:00.446Z,100145.47
2023-03-30T02:17:24.708Z,100147.91
2023-03-30T02:17:47.794Z,100156.66
2023-03-30T02:18:10.473Z,100152.13
2023-03-30T02:18:32.202Z,100154.81
2023-03-30T02:18:54.621Z,100154.81
2023-03-30T02:19:17.991Z,100144.91
2023-03-30T02:19:39.966Z,100147.59
2023-03-30T02:20:02.032Z,100152.25
2023-03-30T02:20:23.698Z,100159.66
2023-03-30T02:20:47.379Z,100156.28
2023-03-30T02:21:09.905Z,100155.56
2023-03-30T02:21:32.798Z,100163.63
2023-03-30T02:21:55.072Z,100156.44
2023-03-30T02:22:20.028Z,100162.75
2023-03-30T02:22:42.576Z,100146.97
2023-03-30T02:23:06.061Z,100148.78
2023-03-30T02:23:35.003Z,100135.25
2023-03-30T02:23:59.845Z,100142.00
2023-03-30T02:24:27.339Z,100150.50
2023-03-30T02:24:52.824Z,100142.47
2023-03-30T02:25:15.688Z,100134.19
2023-03-30T02:25:38.568Z,100109.91
2023-03-30T02:26:00.536Z,100125.91
2023-03-30T02:26:22.995Z,100134.63
2023-03-30T02:26:46.893Z,100128.59
2023-03-30T02:27:08.479Z,100133.44
2023-03-30T02:27:31.897Z,100133.34
2023-03-30T02:27:53.667Z,100125.38
2023-03-30T02:28:16.597Z,100134.84
2023-03-30T02:28:39.435Z,100125.16
2023-03-30T02:29:02.173Z,100135.47
2023-03-30T02:29:23.774Z,100127.97
2023-03-30T02:29:46.128Z,100125.28
2023-03-30T02:30:10.615Z,100116.06
2023-03-30T02:30:33.691Z,100112.50
2023-03-30T02:30:55.573Z,100117.00
2023-03-30T02:31:20.794Z,100114.88
2023-03-30T02:31:44.576Z,100115.50
2023-03-30T02:32:06.664Z,100115.41
2023-03-30T02:32:33.688Z,100114.44
2023-03-30T02:32:57.136Z,100115.31
2023-03-30T02:33:26.470Z,100114.97
2023-03-30T02:34:05.437Z,100119.34
2023-03-30T02:34:45.846Z,100124.72
2023-03-30T02:35:22.225Z,100097.66
2023-03-30T02:35:59.650Z,100102.84
2023-03-30T02:36:40.346Z,100095.66
2023-03-30T02:37:16.545Z,100095.13
2023-03-30T02:37:50.332Z,100078.66
2023-03-30T02:38:32.166Z,100082.66
2023-03-30T02:39:06.803Z,100079.00
2023-03-30T02:39:41.876Z,100068.88
2023-03-30T02:40:22.271Z,100049.13
2023-03-30T02:40:54.145Z,100048.78
2023-03-30T02:41:28.371Z,100040.72
2023-03-30T02:42:28.426Z,100049.31
2023-03-30T02:43:11.636Z,100046.97
2023-03-30T02:43:45.508Z,100052.09
2023-03-30T02:44:18.632Z,100052.09
2023-03-30T02:44:46.308Z,100053.06
2023-03-30T02:45:18.607Z,100059.28
2023-03-30T02:45:51.403Z,100067.34
2023-03-30T02:46:27.241Z,100061.97
2023-03-30T02:47:01.559Z,100070.03
2023-03-30T02:47:36.253Z,100072.50
2023-03-30T02:48:14.824Z,100066.59
2023-03-30T02:48:42.562Z,100069.69
2023-03-30T02:49:16.602Z,100071.41
2023-03-30T02:49:56.432Z,100068.63
2023-03-30T02:50:25.745Z,100066.91
2023-03-30T02:50:54.608Z,100083.03
2023-03-30T02:51:42.735Z,100072.28
2023-03-30T02:52:14.921Z,100055.84
2023-03-30T02:52:52.354Z,100073.00
2023-03-30T02:53:24.874Z,100068.63
2023-03-30T02:53:56.624Z,100063.13
2023-03-30T02:54:48.591Z,100062.41
2023-03-30T02:55:22.291Z,100061.31
2023-03-30T02:56:22.116Z,100052.63
2023-03-30T02:56:58.868Z,100046.63
2023-03-30T02:57:31.236Z,100052.63
2023-03-30T02:58:18.950Z,100055.53
2023-03-30T02:59:14.184Z,100062.84
2023-03-30T02:59:42.387Z,100068.22
2023-03-30T03:00:13.005Z,100063.91
2023-03-30T03:00:41.727Z,100065.88
2023-03-30T03:01:14.019Z,100064.13
2023-03-30T03:01:50.689Z,100065.97
2023-03-30T03:02:19.965Z,100068.88
2023-03-30T03:02:52.448Z,100058.81
2023-03-30T03:03:27.584Z,100072.63
2023-03-30T03:03:54.715Z,100068.47
2023-03-30T03:04:18.813Z,100059.00
2023-03-30T03:04:57.447Z,100067.31
2023-03-30T03:05:38.591Z,100058.59
2023-03-30T03:06:09.333Z,100065.13
2023-03-30T03:06:38.333Z,100063.63
2023-03-30T03:07:02.575Z,100063.75
2023-03-30T03:07:27.826Z,100065.69
2023-03-30T03:07:50.453Z,100063.56
2023-03-30T03:08:15.899Z,100070.50
2023-03-30T03:08:43.026Z,100056.66
2023-03-30T03:09:07.251Z,100057.84
2023-03-30T03:09:29.707Z,100068.25
2023-03-30T03:09:53.170Z,100062.34
2023-03-30T03:10:16.004Z,100078.34
2023-03-30T03:10:38.774Z,100079.31
2023-03-30T03:11:01.476Z,100075.13
2023-03-30T03:11:25.774Z,100078.69
2023-03-30T03:11:49.306Z,100076.97
2023-03-30T03:12:11.035Z,100069.13
2023-03-30T03:12:33.058Z,100065.69
2023-03-30T03:12:54.688Z,100072.78
2023-03-30T03:13:20.592Z,100070.41
2023-03-30T03:13:42.753Z,100073.09
2023-03-30T03:14:04.587Z,100081.34
2023-03-30T03:14:29.548Z,100079.75
2023-03-30T03:14:54.069Z,100078.13
2023-03-30T03:15:16.461Z,100070.28
2023-03-30T03:15:56.768Z,100077.38
2023-03-30T03:16:21.261Z,100080.16
2023-03-30T03:17:05.040Z,100076.84
2023-03-30T03:17:34.751Z,100071.72
2023-03-30T03:17:59.079Z,100074.38
2023-03-30T03:18:20.782Z,100073.63
2023-03-30T03:18:42.551Z,100071.91
2023-03-30T03:19:05.656Z,100065.81
2023-03-30T03:19:27.269Z,100066.75
2023-03-30T03:19:49.327Z,100065.03
2023-03-30T03:20:13.730Z,100051.31
2023-03-30T03:20:36.652Z,100068.78
2023-03-30T03:20:59.143Z,100059.03
2023-03-30T03:21:20.810Z,100063.53
2023-03-30T03:21:43.447Z,100061.91
2023-03-30T03:22:05.191Z,100062.66
2023-03-30T03:22:30.423Z,100062.84
2023-03-30T03:22:52.002Z,100063.84
2023-03-30T03:23:14.602Z,100058.34
2023-03-30T03:23:42.536Z,100067.25
2023-03-30T03:24:06.615Z,100060.00
2023-03-30T03:24:52.104Z,100051.09
2023-03-30T03:25:27.566Z,100050.22
2023-03-30T03:25:54.004Z,100055.69
2023-03-30T03:26:18.535Z,100054.72
2023-03-30T03:26:40.409Z,100054.94
2023-03-30T03:27:02.377Z,100053.28
2023-03-30T03:27:28.497Z,100047.91
2023-03-30T03:28:11.422Z,100046.91
2023-03-30T03:28:42.851Z,100049.44
2023-03-30T03:29:05.190Z,100053.22
2023-03-30T03:29:27.226Z,100052.25
2023-03-30T03:29:50.202Z,100046.75
2023-03-30T03:30:12.867Z,100048.63
2023-03-30T03:30:40.641Z,100046.91
2023-03-30T03:31:13.246Z,100047.63
2023-03-30T03:31:35.804Z,100053.84
2023-03-30T03:31:57.638Z,100053.00
2023-03-30T03:32:22.798Z,100035.78
2023-03-30T03:32:45.471Z,100055.81
2023-03-30T03:33:08.218Z,100050.06
2023-03-30T03:33:31.861Z,100061.16
2023-03-30T03:34:26.021Z,100054.28
2023-03-30T03:34:53.667Z,100058.59
2023-03-30T03:35:15.736Z,100057.72
2023-03-30T03:35:39.331Z,100060.47
2023-03-30T03:36:03.697Z,100063.47
2023-03-30T03:36:28.850Z,100064.44
2023-03-30T03:36:53.367Z,100059.81
2023-03-30T03:37:15.335Z,100062.50
2023-03-30T03:37:39.441Z,100059.09
2023-03-30T03:38:02.106Z,100046.97
2023-03-30T03:38:24.238Z,100060.91
2023-03-30T03:38:46.613Z,100051.31
2023-03-30T03:39:11.461Z,100059.38
2023-03-30T03:39:33.421Z,100060.22
2023-03-30T03:40:01.508Z,100061.31
2023-03-30T03:40:24.010Z,100062.19
2023-03-30T03:40:51.717Z,100059.59
2023-03-30T03:41:13.488Z,100050.91
2023-03-30T03:41:37.034Z,100057.00
2023-03-30T03:41:58.862Z,100057.13
2023-03-30T03:42:21.523Z,100055.41
2023-03-30T03:42:54.838Z,100060.00
2023-03-30T03:43:16.630Z,100051.09
2023-03-30T03:43:38.350Z,100054.75
2023-03-30T03:44:00.088Z,100040.34
2023-03-30T03:44:22.725Z,100051.53
2023-03-30T03:44:44.338Z,100054.22
2023-03-30T03:45:07.728Z,100058.59
2023-03-30T03:45:31.538Z,100066.75
2023-03-30T03:45:54.932Z,100059.66
2023-03-30T03:46:16.669Z,100056.13
2023-03-30T03:46:39.995Z,100041.53
2023-03-30T03:47:01.753Z,100053.53
2023-03-30T03:47:23.525Z,100052.13
2023-03-30T03:47:45.797Z,100053.75
2023-03-30T03:48:08.829Z,100059.97
2023-03-30T03:48:39.444Z,100059.97
2023-03-30T03:49:07.501Z,100050.31
2023-03-30T03:49:29.325Z,100050.22
2023-03-30T03:49:51.930Z,100053.13
2023-03-30T03:50:13.859Z,100046.13
2023-03-30T03:50:53.271Z,100023.03
2023-03-30T03:51:44.770Z,99940.50
2023-03-30T03:52:10.752Z,100045.56
2023-03-30T03:52:35.478Z,100042.88
2023-03-30T03:53:14.612Z,100044.84
2023-03-30T03:53:38.186Z,100041.59
2023-03-30T03:54:04.558Z,100052.00
2023-03-30T03:54:26.368Z,100045.78
2023-03-30T03:54:48.714Z,100048.47
2023-03-30T03:55:14.999Z,100044.84
2023-03-30T03:55:38.308Z,100053.75
2023-03-30T03:56:02.142Z,100029.47
2023-03-30T03:56:25.070Z,100050.28
2023-03-30T03:56:47.123Z,100049.41
2023-03-30T03:57:10.319Z,100025.84
2023-03-30T03:57:33.363Z,100027.53
2023-03-30T03:57:55.287Z,100038.69
2023-03-30T03:58:18.146Z,100024.75
2023-03-30T03:58:39.816Z,100019.69
2023-03-30T03:59:03.518Z,100030.13
2023-03-30T03:59:25.352Z,100031.84
2023-03-30T03:59:47.028Z,100036.34
2023-03-30T04:00:15.642Z,100030.13
2023-03-30T04:00:40.283Z,100036.56
2023-03-30T04:01:03.046Z,99968.84
2023-03-30T04:01:25.206Z,99983.88
2023-03-30T04:01:47.954Z,100008.75
2023-03-30T04:02:09.836Z,100034.59
2023-03-30T04:02:31.968Z,100035.56
2023-03-30T04:02:53.741Z,100030.34
2023-03-30T04:03:16.916Z,100030.34
2023-03-30T04:03:38.565Z,100026.00
2023-03-30T04:04:03.880Z,100022.78
2023-03-30T04:04:25.788Z,100026.22
2023-03-30T04:04:52.506Z,100028.91
2023-03-30T04:05:14.584Z,100030.81
2023-03-30T04:05:36.466Z,100029.97
2023-03-30T04:06:00.398Z,100027.28
2023-03-30T04:06:23.376Z,99997.78
2023-03-30T04:06:45.413Z,100020.41
2023-03-30T04:07:07.013Z,100022.13
2023-03-30T04:07:29.467Z,100018.59
2023-03-30T04:07:53.436Z,100023.09
2023-03-30T04:08:18.019Z,100015.06
2023-03-30T04:08:41.179Z,100011.50
2023-03-30T04:09:15.470Z,99994.16
2023-03-30T04:10:00.298Z,100021.50
2023-03-30T04:10:41.742Z,100031.44
2023-03-30T04:11:30.416Z,100028.97
2023-03-30T04:12:15.496Z,100017.56
2023-03-30T04:13:00.297Z,100008.78
2023-03-30T04:13:41.695Z,100019.38
2023-03-30T04:14:13.466Z,100017.69
2023-03-30T04:14:43.409Z,100016.97
2023-03-30T04:15:12.743Z,100011.63
2023-03-30T04:15:43.181Z,100001.53
2023-03-30T04:16:18.068Z,100017.97
2023-03-30T04:16:58.182Z,100007.44
2023-03-30T04:17:49.891Z,100008.22
2023-03-30T04:18:47.947Z,100003.81
2023-03-30T04:19:25.350Z,100012.69
2023-03-30T04:20:12.038Z,99996.94
2023-03-30T04:20:43.920Z,99992.31
2023-03-30T04:21:17.635Z,100001.13
2023-03-30T04:21:46.780Z,100001.13
2023-03-30T04:22:33.473Z,100009.25
2023-03-30T04:23:21.873Z,100012.78
2023-03-30T04:24:12.099Z,99999.91
2023-03-30T04:24:59.404Z,100009.38
2023-03-30T04:25:39.847Z,100003.25
2023-03-30T04:26:20.483Z,100012.69
2023-03-30T04:26:51.612Z,100004.66
2023-03-30T04:27:28.738Z,100008.28
2023-03-30T04:28:21.584Z,100007.25
2023-03-30T04:28:47.070Z,100008.22
2023-03-30T04:29:29.625Z,100008.00
2023-03-30T04:30:18.747Z,100014.31
2023-03-30T04:31:01.110Z,100002.38
2023-03-30T04:31:54.446Z,100014.53
2023-03-30T04:32:38.642Z,100017.84
2023-03-30T04:33:14.614Z,100019.66
2023-03-30T04:33:52.871Z,100019.66
2023-03-30T04:34:37.379Z,99984.25
2023-03-30T04:35:08.484Z,100019.38
2023-03-30T04:35:50.354Z,100016.72
2023-03-30T04:36:32.282Z,100014.03
2023-03-30T04:37:10.556Z,100014.81
2023-03-30T04:37:52.372Z,100015.66
2023-03-30T04:38:31.567Z,100017.28
2023-03-30T04:39:13.653Z,100023.50
2023-03-30T04:39:57.759Z,100010.41
2023-03-30T04:40:40.614Z,100022.34
2023-03-30T04:41:14.104Z,100012.13
2023-03-30T04:42:14.474Z,100015.06
2023-03-30T04:43:02.535Z,100022.34
2023-03-30T04:43:45.539Z,100019.47
2023-03-30T04:44:20.676Z,100025.69
2023-03-30T04:44:55.186Z,100025.78
2023-03-30T04:45:37.840Z,100019.66
2023-03-30T04:46:16.151Z,100015.16
2023-03-30T04:46:57.811Z,100014.88
2023-03-30T04:47:39.866Z,100026.63
2023-03-30T04:48:22.387Z,100022.13
2023-03-30T04:49:04.398Z,100024.81
2023-03-30T04:50:06.134Z,99991.06
2023-03-30T04:50:49.370Z,100017.81
2023-03-30T04:51:42.548Z,100013.31
2023-03-30T04:52:04.184Z,100026.31
2023-03-30T04:52:32.750Z,100023.56
2023-03-30T04:53:25.263Z,100034.28
2023-03-30T04:54:05.974Z,100005.28
2023-03-30T04:54:54.468Z,100026.88
2023-03-30T04:55:35.242Z,100020.56
2023-03-30T04:56:16.678Z,100024.84
2023-03-30T04:57:09.048Z,100016.72
2023-03-30T04:57:43.078Z,100011.56
2023-03-30T04:58:31.189Z,100013.63
2023-03-30T04:59:04.977Z,100021.44
2023-03-30T04:59:46.994Z,100015.13
2023-03-30T05:00:21.892Z,100013.97
2023-03-30T05:01:15.553Z,100015.38
2023-03-30T05:01:55.724Z,100013.31
2023-03-30T05:02:32.686Z,100013.16
2023-03-30T05:03:14.320Z,100014.66
2023-03-30T05:03:52.623Z,100020.78
2023-03-30T05:04:38.948Z,100015.94
2023-03-30T05:05:09.540Z,99991.88
2023-03-30T05:05:51.238Z,100015.63
2023-03-30T05:06:34.517Z,100020.69
2023-03-30T05:07:02.601Z,100011.22
2023-03-30T05:07:43.590Z,100022.19
2023-03-30T05:08:17.687Z,100013.38
2023-03-30T05:08:56.604Z,100019.28
2023-03-30T05:09:36.903Z,99996.88
2023-03-30T05:10:18.565Z,100024.34
2023-03-30T05:11:02.500Z,100019.75
2023-03-30T05:11:33.385Z,100025.75
2023-03-30T05:12:11.426Z,100026.53
2023-03-30T05:12:41.467Z,100028.66
2023-03-30T05:13:11.374Z,100016.97
2023-03-30T05:13:51.787Z,100019.34
2023-03-30T05:14:21.780Z,100026.84
2023-03-30T05:15:10.189Z,100025.09
2023-03-30T05:15:43.567Z,100023.19
2023-03-30T05:16:24.113Z,100015.25
2023-03-30T05:17:04.596Z,100028.88
2023-03-30T05:17:47.321Z,100042.41
2023-03-30T05:18:21.554Z,100031.69
2023-03-30T05:18:52.108Z,100031.56
2023-03-30T05:19:31.217Z,100031.56
2023-03-30T05:19:53.438Z,100034.13
2023-03-30T05:20:23.962Z,100038.41
2023-03-30T05:21:09.576Z,100038.31
2023-03-30T05:21:57.330Z,100048.09
2023-03-30T05:22:42.005Z,100032.84
2023-03-30T05:23:24.542Z,100027.47
2023-03-30T05:23:46.372Z,100031.13
2023-03-30T05:24:39.972Z,100032.63
2023-03-30T05:25:10.681Z,100041.22
2023-03-30T05:26:00.370Z,100035.84
2023-03-30T05:26:41.806Z,100035.00
2023-03-30T05:27:11.231Z,100027.13
2023-03-30T05:27:47.242Z,100033.81
2023-03-30T05:28:20.844Z,100036.25
2023-03-30T05:29:05.743Z,100038.22
2023-03-30T05:30:08.626Z,100038.00
2023-03-30T05:30:36.367Z,100023.06
2023-03-30T05:31:17.281Z,100039.72
2023-03-30T05:32:09.662Z,100024.91
2023-03-30T05:33:01.882Z,100041.44
2023-03-30T05:33:34.020Z,100036.06
2023-03-30T05:34:14.341Z,100035.09
2023-03-30T05:34:58.908Z,100040.34
2023-03-30T05:35:38.381Z,100041.53
2023-03-30T05:36:00.119Z,100036.06
2023-03-30T05:36:38.549Z,100036.06
2023-03-30T05:37:11.693Z,100035.84
2023-03-30T05:37:38.768Z,100039.28